Time;durP1;ratioP1;P1;durP2;ratioP2;P2;SDS_P1;SDS_P2;PMS_P1;PMS_P2;Temp;Humidity;BMP_temperature;BMP_pressure;BME280_temperature;BME280_humidity;BME280_pressure;Samples;Min_cycle;Max_cycle;Signal;HPM_P1;HPM_P2
2022/09/26 00:01:59;;;;;;;9.48;6.60;;;;;;;-142.57;100.00;68379.81;5036030;28;20033;-80
2022/09/26 00:04:27;;;;;;;9.55;6.63;;;;;;;-142.57;100.00;68379.81;5031308;28;20048;-80
2022/09/26 00:06:54;;;;;;;9.40;7.72;;;;;;;-142.57;100.00;68379.81;5037007;28;20032;-81
2022/09/26 00:09:20;;;;;;;9.15;7.38;;;;;;;-142.57;100.00;68379.81;5041132;28;20013;-81
2022/09/26 00:11:46;;;;;;;12.13;7.53;;;;;;;-142.57;100.00;68379.81;5057547;28;20036;-81
2022/09/26 00:14:15;;;;;;;10.15;7.60;;;;;;;-142.57;100.00;68379.81;5058364;28;20467;-82
2022/09/26 00:16:40;;;;;;;10.55;7.22;;;;;;;-142.57;100.00;68379.81;5037305;28;20125;-81
2022/09/26 00:19:06;;;;;;;10.20;7.65;;;;;;;-142.57;100.00;68379.81;5053170;28;20120;-81
2022/09/26 00:21:32;;;;;;;12.20;7.25;;;;;;;-142.57;100.00;68379.81;5051115;28;20464;-80
2022/09/26 00:23:59;;;;;;;11.00;7.72;;;;;;;-142.57;100.00;68379.81;5069907;28;20056;-79
2022/09/26 00:26:25;;;;;;;10.63;8.02;;;;;;;-142.57;100.00;68379.81;5053120;28;20032;-80
2022/09/26 00:28:50;;;;;;;12.95;8.32;;;;;;;-142.57;100.00;68379.81;5051675;28;20074;-80
2022/09/26 00:31:19;;;;;;;15.05;8.25;;;;;;;-142.57;100.00;68379.81;5051922;28;20029;-81
2022/09/26 00:33:45;;;;;;;12.35;7.80;;;;;;;-142.57;100.00;68379.81;5046109;28;20048;-81
2022/09/26 00:36:11;;;;;;;11.35;9.18;;;;;;;-142.57;100.00;68379.81;5057958;28;20036;-81
2022/09/26 00:38:36;;;;;;;13.13;8.70;;;;;;;-142.57;100.00;68379.81;5044694;28;20036;-81
2022/09/26 00:41:02;;;;;;;10.95;8.80;;;;;;;-142.57;100.00;68379.81;5029865;28;20044;-78
2022/09/26 00:43:31;;;;;;;12.98;9.10;;;;;;;-142.57;100.00;68379.81;5035741;28;20017;-83
2022/09/26 00:46:18;;;;;;;11.90;7.75;;;;;;;-142.57;100.00;68379.81;5054349;28;20107;-82
2022/09/26 00:48:45;;;;;;;11.18;7.82;;;;;;;-142.57;100.00;68379.81;5039136;28;20025;-82
2022/09/26 00:51:10;;;;;;;9.98;8.00;;;;;;;-142.57;100.00;68379.81;5047705;28;20061;-83
2022/09/26 00:53:41;;;;;;;9.23;7.03;;;;;;;-142.57;100.00;68379.81;5066548;28;20119;-82
2022/09/26 00:56:11;;;;;;;11.00;8.13;;;;;;;-142.57;100.00;68379.81;5032427;28;20037;-81
2022/09/26 00:58:51;;;;;;;13.38;8.23;;;;;;;-142.57;100.00;68379.81;5021641;28;20036;-82
2022/09/26 01:01:17;;;;;;;10.75;7.97;;;;;;;-142.57;100.00;68379.81;5032771;28;20379;-82
2022/09/26 01:03:43;;;;;;;14.38;7.78;;;;;;;-142.57;100.00;68379.81;5051788;28;20032;-82
2022/09/26 01:06:08;;;;;;;8.30;6.35;;;;;;;-142.57;100.00;68379.81;5042730;28;20108;-82
2022/09/26 01:08:38;;;;;;;9.68;6.97;;;;;;;-142.57;100.00;68379.81;5065281;28;20460;-81
2022/09/26 01:11:05;;;;;;;8.57;6.28;;;;;;;-142.57;100.00;68379.81;5052750;28;20079;-81
2022/09/26 01:13:32;;;;;;;7.75;6.60;;;;;;;-142.57;100.00;68379.81;5051217;28;20037;-80
2022/09/26 01:15:57;;;;;;;10.30;6.35;;;;;;;-142.57;100.00;68379.81;5039435;28;20083;-82
2022/09/26 01:18:23;;;;;;;12.10;6.50;;;;;;;-142.57;100.00;68379.81;5052372;28;20025;-82
2022/09/26 01:21:17;;;;;;;9.35;5.90;;;;;;;-142.57;100.00;68379.81;5032601;28;20021;-81
2022/09/26 01:24:04;;;;;;;12.20;6.47;;;;;;;-142.57;100.00;68379.81;5045799;28;20421;-80
2022/09/26 01:26:51;;;;;;;11.85;5.82;;;;;;;-142.57;100.00;68379.81;5041251;28;21299;-80
2022/09/26 01:29:54;;;;;;;7.93;5.38;;;;;;;-142.57;100.00;68379.81;5052167;28;20036;-80
2022/09/26 01:32:52;;;;;;;8.77;6.20;;;;;;;-142.57;100.00;68379.81;5044379;28;20029;-78
2022/09/26 01:35:20;;;;;;;9.73;5.78;;;;;;;-142.57;100.00;68379.81;5023711;28;20038;-76
2022/09/26 01:37:58;;;;;;;7.70;5.47;;;;;;;-142.57;100.00;68379.81;5046684;28;20033;-78
2022/09/26 01:41:02;;;;;;;7.88;5.43;;;;;;;-142.57;100.00;68379.81;5040183;28;20068;-81
2022/09/26 01:43:38;;;;;;;7.03;5.00;;;;;;;-142.57;100.00;68379.81;5051403;28;20033;-77
2022/09/26 01:46:13;;;;;;;7.68;5.80;;;;;;;-142.57;100.00;68379.81;5056918;28;20068;-78
2022/09/26 01:48:40;;;;;;;;;;;;;;;-142.57;100.00;68379.81;5051905;28;20021;-81
2022/09/26 01:51:15;;;;;;;7.38;5.00;;;;;;;-142.57;100.00;68379.81;5051972;28;19935;-81
2022/09/26 01:53:52;;;;;;;9.80;5.63;;;;;;;-142.57;100.00;68379.81;5057970;28;20036;-81
2022/09/26 01:56:20;;;;;;;6.32;4.78;;;;;;;-142.57;100.00;68379.81;5033868;28;20025;-76
2022/09/26 01:58:50;;;;;;;8.63;5.65;;;;;;;-142.57;100.00;68379.81;5050272;28;20083;-81
2022/09/26 02:01:17;;;;;;;7.60;4.80;;;;;;;-142.57;100.00;68379.81;5053524;28;20028;-82
2022/09/26 02:03:46;;;;;;;7.28;4.40;;;;;;;-142.57;100.00;68379.81;5051775;28;20032;-81
2022/09/26 02:06:36;;;;;;;7.70;4.72;;;;;;;-142.57;100.00;68379.81;5035097;28;20040;-81
2022/09/26 02:09:18;;;;;;;9.60;4.85;;;;;;;-142.57;100.00;68379.81;5048213;28;20063;-82
2022/09/26 02:11:47;;;;;;;7.45;4.80;;;;;;;-142.57;100.00;68379.81;5048765;28;20028;-82
2022/09/26 02:14:21;;;;;;;8.38;4.97;;;;;;;-142.57;100.00;68379.81;5037142;28;20024;-82
2022/09/26 02:16:54;;;;;;;10.40;5.20;;;;;;;-142.57;100.00;68379.81;5068849;28;20028;-82
2022/09/26 02:19:28;;;;;;;11.93;4.82;;;;;;;-142.57;100.00;68379.81;5039182;28;20056;-81
2022/09/26 02:21:54;;;;;;;7.25;5.10;;;;;;;-142.57;100.00;68379.81;5036449;28;20025;-80
2022/09/26 02:24:21;;;;;;;7.35;4.75;;;;;;;-142.57;100.00;68379.81;5032867;28;20499;-82
2022/09/26 02:26:46;;;;;;;7.38;5.45;;;;;;;-142.57;100.00;68379.81;5063033;28;20082;-81
2022/09/26 02:29:12;;;;;;;8.32;4.75;;;;;;;-142.57;100.00;68379.81;5034664;28;20021;-81
2022/09/26 02:31:45;;;;;;;14.27;5.85;;;;;;;-142.57;100.00;68379.81;5035091;28;20081;-81
2022/09/26 02:34:11;;;;;;;9.55;5.63;;;;;;;-142.57;100.00;68379.81;5051600;28;20066;-82
2022/09/26 02:36:37;;;;;;;8.43;6.13;;;;;;;-142.57;100.00;68379.81;5036036;28;20024;-77
2022/09/26 02:39:02;;;;;;;5.70;4.70;;;;;;;-142.57;100.00;68379.81;5034275;28;20029;-82
2022/09/26 02:41:56;;;;;;;9.55;5.80;;;;;;;-142.57;100.00;68379.81;5035570;28;20048;-82
2022/09/26 02:44:41;;;;;;;7.97;5.50;;;;;;;-142.57;100.00;68379.81;5069918;28;20066;-81
2022/09/26 02:47:25;;;;;;;7.10;5.72;;;;;;;-142.57;100.00;68379.81;5058291;28;20467;-82
2022/09/26 02:50:24;;;;;;;8.02;5.78;;;;;;;-142.57;100.00;68379.81;5051239;28;20170;-80
2022/09/26 02:52:49;;;;;;;7.90;6.03;;;;;;;-142.57;100.00;68379.81;5038567;28;20033;-81
2022/09/26 02:55:20;;;;;;;12.38;6.85;;;;;;;-142.57;100.00;68379.81;5050432;28;20468;-81
2022/09/26 02:58:17;;;;;;;12.40;5.82;;;;;;;-142.57;100.00;68379.81;5042301;28;20028;-81
2022/09/26 03:00:54;;;;;;;11.30;6.47;;;;;;;-142.57;100.00;68379.81;5044139;28;20021;-81
2022/09/26 03:03:37;;;;;;;12.57;6.72;;;;;;;-142.57;100.00;68379.81;5056124;28;20024;-80
2022/09/26 03:06:04;;;;;;;10.15;6.43;;;;;;;-142.57;100.00;68379.81;5039874;28;20075;-80
2022/09/26 03:08:33;;;;;;;15.90;6.03;;;;;;;-142.57;100.00;68379.81;5021548;28;20013;-80
2022/09/26 03:11:02;;;;;;;10.82;6.20;;;;;;;-142.57;100.00;68379.81;5051339;28;20460;-80
2022/09/26 03:13:33;;;;;;;11.68;5.78;;;;;;;-142.57;100.00;68379.81;5030974;28;20096;-82
2022/09/26 03:15:58;;;;;;;20.42;8.05;;;;;;;-142.57;100.00;68379.81;5047911;28;20026;-81
2022/09/26 03:18:28;;;;;;;13.80;6.50;;;;;;;-142.57;100.00;68379.81;5050705;28;20055;-76
2022/09/26 03:20:53;;;;;;;9.32;6.50;;;;;;;-142.57;100.00;68379.81;5038697;28;20024;-80
2022/09/26 03:23:25;;;;;;;17.35;7.20;;;;;;;-142.57;100.00;68379.81;5054971;28;20047;-80
2022/09/26 03:25:59;;;;;;;11.88;6.63;;;;;;;-142.57;100.00;68379.81;5034870;28;20116;-80
2022/09/26 03:28:25;;;;;;;11.02;6.55;;;;;;;-142.57;100.00;68379.81;5037942;28;20021;-79
2022/09/26 03:30:50;;;;;;;13.65;7.63;;;;;;;-142.57;100.00;68379.81;5054731;28;20908;-79
2022/09/26 03:33:15;;;;;;;12.02;7.15;;;;;;;-142.57;100.00;68379.81;5056244;28;20479;-81
2022/09/26 03:35:41;;;;;;;12.38;7.00;;;;;;;-142.57;100.00;68379.81;5038228;28;20025;-83
2022/09/26 03:38:06;;;;;;;9.82;6.80;;;;;;;-142.57;100.00;68379.81;5040670;28;20025;-82
2022/09/26 03:40:31;;;;;;;11.50;7.07;;;;;;;-142.57;100.00;68379.81;5042442;28;20024;-82
2022/09/26 03:42:57;;;;;;;14.90;7.93;;;;;;;-142.57;100.00;68379.81;5059889;28;20028;-80
2022/09/26 03:45:22;;;;;;;10.40;6.60;;;;;;;-142.57;100.00;68379.81;5063676;28;20032;-82
2022/09/26 03:47:54;;;;;;;11.05;6.93;;;;;;;-142.57;100.00;68379.81;5036447;28;20013;-79
2022/09/26 03:50:20;;;;;;;11.50;6.22;;;;;;;-142.57;100.00;68379.81;5057183;28;20108;-75
2022/09/26 03:52:45;;;;;;;13.73;5.88;;;;;;;-142.57;100.00;68379.81;5051733;28;20107;-80
2022/09/26 03:55:10;;;;;;;14.23;5.35;;;;;;;-142.57;100.00;68379.81;5054792;28;20024;-80
2022/09/26 03:57:36;;;;;;;7.85;4.93;;;;;;;-142.57;100.00;68379.81;5055873;28;20483;-79
2022/09/26 04:00:02;;;;;;;10.40;5.10;;;;;;;-142.57;100.00;68379.81;5055199;28;20101;-79
2022/09/26 04:02:28;;;;;;;16.63;5.78;;;;;;;-142.57;100.00;68379.81;5055984;28;20033;-80
2022/09/26 04:04:53;;;;;;;9.57;5.72;;;;;;;-142.57;100.00;68379.81;5035763;28;20036;-78
2022/09/26 04:07:18;;;;;;;6.57;4.80;;;;;;;-142.57;100.00;68379.81;5059361;28;20155;-80
2022/09/26 04:09:44;;;;;;;11.07;5.88;;;;;;;-142.57;100.00;68379.81;5049387;28;20483;-81
2022/09/26 04:12:09;;;;;;;7.82;4.65;;;;;;;-142.57;100.00;68379.81;5061345;28;20029;-81
2022/09/26 04:14:34;;;;;;;10.35;5.18;;;;;;;-142.57;100.00;68379.81;5000026;28;20048;-81
2022/09/26 04:17:00;;;;;;;6.75;4.53;;;;;;;-142.57;100.00;68379.81;5013303;28;20863;-78
2022/09/26 04:19:25;;;;;;;8.30;5.05;;;;;;;-142.57;100.00;68379.81;5013825;28;20079;-80
2022/09/26 04:21:51;;;;;;;15.18;5.53;;;;;;;-142.57;100.00;68379.81;5024371;28;20025;-78
2022/09/26 04:24:16;;;;;;;8.88;5.13;;;;;;;-142.57;100.00;68379.81;5053806;28;20044;-80
2022/09/26 04:26:43;;;;;;;6.75;4.53;;;;;;;-142.57;100.00;68379.81;5037029;28;20132;-80
2022/09/26 04:29:09;;;;;;;6.72;3.78;;;;;;;-142.57;100.00;68379.81;5035285;28;20471;-78
2022/09/26 04:31:35;;;;;;;10.20;4.47;;;;;;;-142.57;100.00;68379.81;5033660;28;20472;-79
2022/09/26 04:34:01;;;;;;;9.25;4.60;;;;;;;-142.57;100.00;68379.81;5049065;28;20024;-77
2022/09/26 04:36:27;;;;;;;8.82;3.83;;;;;;;-142.57;100.00;68379.81;5054536;28;20066;-80
2022/09/26 04:38:52;;;;;;;9.75;4.18;;;;;;;-142.57;100.00;68379.81;5060531;28;20037;-81
2022/09/26 04:41:19;;;;;;;13.45;4.20;;;;;;;-142.57;100.00;68379.81;5049892;28;20045;-80
2022/09/26 04:43:45;;;;;;;11.98;4.40;;;;;;;-142.57;100.00;68379.81;5036637;28;20036;-82
2022/09/26 04:46:16;;;;;;;18.13;4.85;;;;;;;-142.57;100.00;68379.81;5033106;28;20013;-77
2022/09/26 04:48:42;;;;;;;14.00;4.07;;;;;;;-142.57;100.00;68379.81;5061869;28;20021;-80
2022/09/26 04:51:12;;;;;;;7.25;4.22;;;;;;;-142.57;100.00;68379.81;5052832;28;20021;-81
2022/09/26 04:53:38;;;;;;;6.85;3.50;;;;;;;-142.57;100.00;68379.81;5036246;28;20039;-82
2022/09/26 04:56:05;;;;;;;6.63;2.78;;;;;;;-142.57;100.00;68379.81;5038407;28;20044;-81
2022/09/26 04:58:30;;;;;;;7.13;2.97;;;;;;;-142.57;100.00;68379.81;5036604;28;20495;-81
2022/09/26 05:01:01;;;;;;;6.78;3.03;;;;;;;-142.57;100.00;68379.81;5036252;28;20025;-81
2022/09/26 05:03:28;;;;;;;11.18;4.07;;;;;;;-142.57;100.00;68379.81;5058836;28;20029;-80
2022/09/26 05:05:53;;;;;;;8.90;3.40;;;;;;;-142.57;100.00;68379.81;5052623;28;20033;-81
2022/09/26 05:08:19;;;;;;;11.93;3.58;;;;;;;-142.57;100.00;68379.81;5066604;28;20017;-80
2022/09/26 05:10:51;;;;;;;9.52;2.83;;;;;;;-142.57;100.00;68379.81;5045643;28;20387;-81
2022/09/26 05:13:16;;;;;;;17.30;3.90;;;;;;;-142.57;100.00;68379.81;5041505;28;20040;-76
2022/09/26 05:15:42;;;;;;;10.45;3.70;;;;;;;-142.57;100.00;68379.81;5054650;28;20029;-78
2022/09/26 05:18:07;;;;;;;12.60;3.28;;;;;;;-142.57;100.00;68379.81;5048562;28;20018;-76
2022/09/26 05:20:37;;;;;;;5.10;3.22;;;;;;;-142.57;100.00;68379.81;5035160;28;20035;-76
2022/09/26 05:23:04;;;;;;;5.22;2.83;;;;;;;-142.57;100.00;68379.81;5041552;28;20113;-78
2022/09/26 05:28:18;;;;;;;6.00;3.08;;;;;;;-142.57;100.00;68379.81;5067523;28;20127;-77
2022/09/26 05:30:44;;;;;;;6.88;2.90;;;;;;;-142.57;100.00;68379.81;5040008;28;20090;-77
2022/09/26 05:33:11;;;;;;;8.27;3.17;;;;;;;-142.57;100.00;68379.81;5059852;28;20041;-78
2022/09/26 05:35:37;;;;;;;7.70;3.13;;;;;;;-142.57;100.00;68379.81;5016401;28;20029;-76
2022/09/26 05:38:03;;;;;;;16.30;3.10;;;;;;;-142.57;100.00;68379.81;5012348;28;20024;-78
2022/09/26 05:43:13;;;;;;;10.13;3.43;;;;;;;-142.57;100.00;68379.81;5066400;28;20042;-78
2022/09/26 05:45:38;;;;;;;5.88;2.47;;;;;;;-142.57;100.00;68379.81;5033030;28;20295;-77
2022/09/26 05:48:04;;;;;;;7.13;2.67;;;;;;;-142.57;100.00;68379.81;5035453;28;20467;-76
2022/09/26 05:50:30;;;;;;;6.35;2.47;;;;;;;-142.57;100.00;68379.81;5051618;28;20471;-76
2022/09/26 05:53:00;;;;;;;6.10;2.72;;;;;;;-142.57;100.00;68379.81;5034383;28;20311;-75
2022/09/26 05:55:26;;;;;;;5.93;2.40;;;;;;;-142.57;100.00;68379.81;5051769;28;20142;-74
2022/09/26 05:57:52;;;;;;;11.13;3.65;;;;;;;-142.57;100.00;68379.81;5049540;28;20032;-73
2022/09/26 06:00:18;;;;;;;6.05;2.97;;;;;;;-142.57;100.00;68379.81;5035489;28;20082;-76
2022/09/26 06:02:43;;;;;;;5.70;2.63;;;;;;;-142.57;100.00;68379.81;5031378;28;20025;-76
2022/09/26 06:05:09;;;;;;;9.05;2.85;;;;;;;-142.57;100.00;68379.81;5051701;28;20021;-76
2022/09/26 06:07:34;;;;;;;6.40;3.38;;;;;;;-142.57;100.00;68379.81;5045081;28;20029;-75
2022/09/26 06:09:59;;;;;;;8.35;2.60;;;;;;;-142.57;100.00;68379.81;5035056;28;20020;-74
2022/09/26 06:12:25;;;;;;;6.72;2.63;;;;;;;-142.57;100.00;68379.81;5053101;28;20442;-75
2022/09/26 06:14:52;;;;;;;10.63;3.20;;;;;;;-142.57;100.00;68379.81;5047387;28;20092;-74
2022/09/26 06:17:18;;;;;;;7.07;2.95;;;;;;;-142.57;100.00;68379.81;5033516;28;20033;-75
2022/09/26 06:19:43;;;;;;;7.90;3.22;;;;;;;-142.57;100.00;68379.81;5046309;28;20025;-74
2022/09/26 06:22:09;;;;;;;9.80;2.80;;;;;;;-142.57;100.00;68379.81;5071987;28;20021;-76
2022/09/26 06:24:35;;;;;;;8.57;3.08;;;;;;;-142.57;100.00;68379.81;5038007;28;20108;-74
2022/09/26 06:27:00;;;;;;;5.63;2.58;;;;;;;-142.57;100.00;68379.81;5047140;28;20033;-75
2022/09/26 06:29:25;;;;;;;7.90;3.05;;;;;;;-142.57;100.00;68379.81;5038525;28;20343;-75
2022/09/26 06:31:51;;;;;;;5.18;2.97;;;;;;;-142.57;100.00;68379.81;5027500;28;20037;-73
2022/09/26 06:34:16;;;;;;;12.52;2.75;;;;;;;-142.57;100.00;68379.81;5047473;28;20024;-75
2022/09/26 06:36:41;;;;;;;5.35;2.92;;;;;;;-142.57;100.00;68379.81;5039765;28;20068;-75
2022/09/26 06:39:07;;;;;;;6.13;2.92;;;;;;;-142.57;100.00;68379.81;5069702;28;20021;-70
2022/09/26 06:41:33;;;;;;;5.22;2.63;;;;;;;-142.57;100.00;68379.81;5055968;28;20371;-68
2022/09/26 06:44:00;;;;;;;7.53;3.20;;;;;;;-142.57;100.00;68379.81;5051871;28;20024;-73
2022/09/26 06:46:26;;;;;;;9.10;3.72;;;;;;;-142.57;100.00;68379.81;5049767;28;20020;-74
2022/09/26 06:48:52;;;;;;;6.80;2.58;;;;;;;-142.57;100.00;68379.81;5051480;28;20021;-72
2022/09/26 06:51:18;;;;;;;10.63;2.78;;;;;;;-142.57;100.00;68379.81;5047593;28;20031;-73
2022/09/26 06:53:44;;;;;;;13.55;3.88;;;;;;;-142.57;100.00;68379.81;5050038;28;20064;-73
2022/09/26 06:56:10;;;;;;;12.85;2.95;;;;;;;-142.57;100.00;68379.81;5068077;28;20053;-72
2022/09/26 06:58:36;;;;;;;8.13;3.28;;;;;;;-142.57;100.00;68379.81;5050856;28;20079;-73
2022/09/26 07:01:02;;;;;;;4.40;2.40;;;;;;;-142.57;100.00;68379.81;5040030;28;20025;-73
2022/09/26 07:03:28;;;;;;;7.00;3.13;;;;;;;-142.57;100.00;68379.81;5056120;28;20017;-72
2022/09/26 07:05:55;;;;;;;7.93;3.42;;;;;;;-142.57;100.00;68379.81;5055166;28;20025;-73
2022/09/26 07:08:20;;;;;;;10.23;3.00;;;;;;;-142.57;100.00;68379.81;5054670;28;20025;-73
2022/09/26 07:10:46;;;;;;;6.03;3.40;;;;;;;-142.57;100.00;68379.81;5036103;28;20557;-75
2022/09/26 07:13:14;;;;;;;9.75;3.33;;;;;;;-142.57;100.00;68379.81;5029137;28;20031;-74
2022/09/26 07:15:45;;;;;;;15.30;3.95;;;;;;;-142.57;100.00;68379.81;5044588;28;20025;-73
2022/09/26 07:18:10;;;;;;;4.82;2.70;;;;;;;-142.57;100.00;68379.81;5043605;28;20430;-74
2022/09/26 07:20:45;;;;;;;7.75;2.97;;;;;;;-142.57;100.00;68379.81;5027603;28;20041;-73
2022/09/26 07:23:10;;;;;;;;;;;;;;;-142.57;100.00;68379.81;5049476;28;20041;-70
2022/09/26 07:25:38;;;;;;;4.65;2.22;;;;;;;-142.57;100.00;68379.81;5052891;28;19916;-73
2022/09/26 07:28:05;;;;;;;5.22;2.83;;;;;;;-142.57;100.00;68379.81;5047164;28;20025;-73
2022/09/26 07:30:30;;;;;;;8.73;2.55;;;;;;;-142.57;100.00;68379.81;5029697;28;20064;-73
2022/09/26 07:33:02;;;;;;;10.63;3.00;;;;;;;-142.57;100.00;68379.81;5049176;28;20699;-73
2022/09/26 07:35:28;;;;;;;5.40;2.75;;;;;;;-142.57;100.00;68379.81;5050049;28;20041;-74
2022/09/26 07:37:54;;;;;;;4.68;2.67;;;;;;;-142.57;100.00;68379.81;5027743;28;20024;-75
2022/09/26 07:40:22;;;;;;;5.13;2.83;;;;;;;-142.57;100.00;68379.81;5053363;28;20032;-76
2022/09/26 07:42:47;;;;;;;9.23;2.80;;;;;;;-142.57;100.00;68379.81;5065168;28;20035;-73
2022/09/26 07:45:12;;;;;;;4.80;2.50;;;;;;;-142.57;100.00;68379.81;5049617;28;20016;-73
2022/09/26 07:50:22;;;;;;;2.73;1.77;;;;;;;-142.57;100.00;68379.81;5049241;28;20093;-73
2022/09/26 07:52:48;;;;;;;7.28;2.60;;;;;;;-142.57;100.00;68379.81;5029681;28;20982;-73
2022/09/26 07:55:24;;;;;;;5.00;2.40;;;;;;;-142.57;100.00;68379.81;5033306;28;20081;-73
2022/09/26 07:57:49;;;;;;;8.82;2.50;;;;;;;-142.57;100.00;68379.81;5048418;28;20056;-74
2022/09/26 08:00:17;;;;;;;4.63;2.45;;;;;;;-142.57;100.00;68379.81;5047974;28;20056;-73
2022/09/26 08:02:45;;;;;;;7.65;3.08;;;;;;;-142.57;100.00;68379.81;5049475;28;20029;-73
2022/09/26 08:05:18;;;;;;;7.93;2.60;;;;;;;-142.57;100.00;68379.81;5046047;28;20020;-77
2022/09/26 08:07:44;;;;;;;6.78;3.33;;;;;;;-142.57;100.00;68379.81;5032177;28;20044;-73
2022/09/26 08:10:18;;;;;;;6.75;2.67;;;;;;;-142.57;100.00;68379.81;5043632;28;20018;-74
2022/09/26 08:12:43;;;;;;;8.50;3.37;;;;;;;-142.57;100.00;68379.81;5048226;28;20029;-75
2022/09/26 08:15:09;;;;;;;6.78;2.60;;;;;;;-142.57;100.00;68379.81;5048985;28;20024;-73
2022/09/26 08:17:34;;;;;;;4.40;2.50;;;;;;;-142.57;100.00;68379.81;5046457;28;20036;-73
2022/09/26 08:20:00;;;;;;;7.03;2.88;;;;;;;-142.57;100.00;68379.81;5024221;28;20018;-73
2022/09/26 08:22:26;;;;;;;8.25;3.85;;;;;;;-142.57;100.00;68379.81;5040864;28;20104;-74
2022/09/26 08:24:54;;;;;;;8.40;3.55;;;;;;;-142.57;100.00;68379.81;5047672;28;20025;-76
2022/09/26 08:27:21;;;;;;;5.63;3.03;;;;;;;-142.57;100.00;68379.81;5048247;28;20568;-74
2022/09/26 08:29:48;;;;;;;5.28;2.88;;;;;;;-142.57;100.00;68379.81;5046844;28;20033;-74
2022/09/26 08:32:14;;;;;;;5.78;3.45;;;;;;;-142.57;100.00;68379.81;5035191;28;20025;-73
2022/09/26 08:34:39;;;;;;;4.20;2.65;;;;;;;-142.57;100.00;68379.81;5026927;28;20033;-73
2022/09/26 08:37:05;;;;;;;6.35;3.22;;;;;;;-142.57;100.00;68379.81;5036337;28;20016;-73
2022/09/26 08:39:31;;;;;;;3.80;2.05;;;;;;;-142.57;100.00;68379.81;5045948;28;20029;-73
2022/09/26 08:42:24;;;;;;;5.18;2.47;;;;;;;-142.57;100.00;68379.81;5040714;28;20060;-74
2022/09/26 08:45:01;;;;;;;6.43;2.67;;;;;;;-142.57;100.00;68379.81;5018184;28;20033;-73
2022/09/26 08:47:46;;;;;;;4.60;2.22;;;;;;;-142.57;100.00;68379.81;5048794;28;20032;-73
2022/09/26 08:50:31;;;;;;;5.80;2.60;;;;;;;-142.57;100.00;68379.81;5029398;28;20074;-74
2022/09/26 08:53:01;;;;;;;6.13;2.38;;;;;;;-142.57;100.00;68379.81;5028192;28;20545;-76
2022/09/26 08:55:31;;;;;;;6.03;2.60;;;;;;;-142.57;100.00;68379.81;5047235;28;20117;-75
2022/09/26 08:57:57;;;;;;;7.47;3.03;;;;;;;-142.57;100.00;68379.81;5054519;28;20071;-75
2022/09/26 09:00:25;;;;;;;6.35;2.42;;;;;;;-142.57;100.00;68379.81;5045938;28;20024;-75
2022/09/26 09:02:54;;;;;;;8.73;2.53;;;;;;;-142.57;100.00;68379.81;5047702;28;20115;-73
2022/09/26 09:05:23;;;;;;;7.07;2.17;;;;;;;-142.57;100.00;68379.81;5038427;28;20086;-74
2022/09/26 09:07:52;;;;;;;3.70;1.85;;;;;;;-142.57;100.00;68379.81;5044176;28;20024;-74
2022/09/26 09:10:23;;;;;;;6.18;2.38;;;;;;;-142.57;100.00;68379.81;5048461;28;20029;-73
2022/09/26 09:12:57;;;;;;;5.78;2.03;;;;;;;-142.57;100.00;68379.81;5055023;28;20082;-74
2022/09/26 09:16:04;;;;;;;9.20;2.22;;;;;;;-142.57;100.00;68379.81;5052649;28;20115;-75
2022/09/26 09:18:48;;;;;;;6.93;2.78;;;;;;;-142.57;100.00;68379.81;5001450;28;20026;-74
2022/09/26 09:21:41;;;;;;;8.65;2.22;;;;;;;-142.57;100.00;68379.81;5015683;28;20033;-74
2022/09/26 09:24:17;;;;;;;5.07;2.17;;;;;;;-142.57;100.00;68379.81;5015335;28;20025;-71
2022/09/26 09:27:12;;;;;;;4.38;1.98;;;;;;;-142.57;100.00;68379.81;5009877;28;20022;-74
2022/09/26 09:30:05;;;;;;;5.93;2.78;;;;;;;-142.57;100.00;68379.81;5010633;28;20763;-73
2022/09/26 09:32:42;;;;;;;3.70;1.90;;;;;;;-142.57;100.00;68379.81;5012386;28;20021;-71
2022/09/26 09:35:15;;;;;;;6.78;2.33;;;;;;;-142.57;100.00;68379.81;5010790;28;20035;-71
2022/09/26 09:37:46;;;;;;;5.65;1.83;;;;;;;-142.57;100.00;68379.81;5017902;28;20028;-71
2022/09/26 09:40:42;;;;;;;7.72;2.05;;;;;;;-142.57;100.00;68379.81;5011219;28;20136;-73
2022/09/26 09:43:25;;;;;;;4.38;1.80;;;;;;;-142.57;100.00;68379.81;5014217;28;20816;-71
2022/09/26 09:45:52;;;;;;;6.05;1.95;;;;;;;-142.57;100.00;68379.81;5035331;28;20132;-70
2022/09/26 09:48:18;;;;;;;6.00;2.42;;;;;;;-142.57;100.00;68379.81;5061502;28;20547;-69
2022/09/26 09:50:47;;;;;;;4.40;1.92;;;;;;;-142.57;100.00;68379.81;5064618;28;20107;-72
2022/09/26 09:53:22;;;;;;;7.70;2.33;;;;;;;-142.57;100.00;68379.81;5061991;28;20026;-71
2022/09/26 09:56:16;;;;;;;6.20;2.22;;;;;;;-142.57;100.00;68379.81;5054907;28;20116;-71
2022/09/26 09:59:13;;;;;;;22.63;2.58;;;;;;;-142.57;100.00;68379.81;5044340;28;20040;-73
2022/09/26 10:01:41;;;;;;;6.05;2.80;;;;;;;-142.57;100.00;68379.81;5037086;28;20041;-72
2022/09/26 10:04:31;;;;;;;5.78;2.55;;;;;;;-142.57;100.00;68379.81;5035538;28;20028;-69
2022/09/26 10:06:56;;;;;;;4.10;2.05;;;;;;;-142.57;100.00;68379.81;5041850;28;20059;-68
2022/09/26 10:09:31;;;;;;;9.00;2.50;;;;;;;-142.57;100.00;68379.81;5055553;28;20016;-70
2022/09/26 10:11:57;;;;;;;5.65;2.55;;;;;;;-142.57;100.00;68379.81;5047902;28;20039;-68
2022/09/26 10:14:32;;;;;;;9.30;2.40;;;;;;;-142.57;100.00;68379.81;5052592;28;20489;-72
2022/09/26 10:17:09;;;;;;;8.20;2.47;;;;;;;-142.57;100.00;68379.81;5045704;28;20089;-75
2022/09/26 10:19:37;;;;;;;4.90;2.25;;;;;;;-142.57;100.00;68379.81;5047874;28;20677;-73
2022/09/26 10:22:08;;;;;;;8.00;2.63;;;;;;;-142.57;100.00;68379.81;5029899;28;20025;-72
2022/09/26 10:24:39;;;;;;;10.48;2.45;;;;;;;-142.57;100.00;68379.81;5045031;28;20029;-72
2022/09/26 10:27:36;;;;;;;6.85;2.72;;;;;;;-142.57;100.00;68379.81;5039723;28;20036;-72
2022/09/26 10:30:15;;;;;;;8.13;2.47;;;;;;;-142.57;100.00;68379.81;5033385;28;20021;-70
2022/09/26 10:32:44;;;;;;;5.43;2.20;;;;;;;-142.57;100.00;68379.81;5047156;28;20040;-70
2022/09/26 10:35:17;;;;;;;8.05;2.95;;;;;;;-142.57;100.00;68379.81;5030866;28;20421;-72
2022/09/26 10:37:47;;;;;;;7.57;2.47;;;;;;;-142.57;100.00;68379.81;5049618;28;20036;-72
2022/09/26 10:43:24;;;;;;;6.55;1.98;;;;;;;-142.57;100.00;68379.81;5046434;28;20117;-73
2022/09/26 10:46:16;;;;;;;5.25;2.30;;;;;;;-142.57;100.00;68379.81;5029070;28;20084;-72
2022/09/26 10:48:55;;;;;;;5.15;2.20;;;;;;;-142.57;100.00;68379.81;5051887;28;20051;-72
2022/09/26 10:51:44;;;;;;;4.47;2.28;;;;;;;-142.57;100.00;68379.81;5031036;28;20012;-72
2022/09/26 10:54:10;;;;;;;11.98;2.17;;;;;;;-142.57;100.00;68379.81;5052663;28;20032;-72
2022/09/26 10:56:41;;;;;;;7.28;2.60;;;;;;;-142.57;100.00;68379.81;5060580;28;20261;-71
2022/09/26 10:59:08;;;;;;;6.18;2.72;;;;;;;-142.57;100.00;68379.81;5034853;28;20031;-72
2022/09/26 11:01:41;;;;;;;4.40;1.77;;;;;;;-142.57;100.00;68379.81;5054862;28;20550;-72
2022/09/26 11:07:04;;;;;;;6.40;2.13;;;;;;;-142.57;100.00;68379.81;5036520;28;20060;-72
2022/09/26 11:09:30;;;;;;;9.35;2.47;;;;;;;-142.57;100.00;68379.81;5032407;28;20020;-73
2022/09/26 11:11:55;;;;;;;9.15;2.83;;;;;;;-142.57;100.00;68379.81;5011429;28;20091;-73
2022/09/26 11:14:28;;;;;;;8.60;2.63;;;;;;;-142.57;100.00;68379.81;5048279;28;20060;-74
2022/09/26 11:16:55;;;;;;;5.60;2.17;;;;;;;-142.57;100.00;68379.81;5049515;28;20435;-73
2022/09/26 11:19:25;;;;;;;7.60;3.10;;;;;;;-142.57;100.00;68379.81;5043433;28;20112;-72
2022/09/26 11:22:13;;;;;;;11.82;2.63;;;;;;;-142.57;100.00;68379.81;5046880;28;20051;-73
2022/09/26 11:25:11;;;;;;;7.07;2.95;;;;;;;-142.57;100.00;68379.81;5021038;28;20539;-73
2022/09/26 11:27:44;;;;;;;5.55;2.78;;;;;;;-142.57;100.00;68379.81;5024511;28;20087;-73
2022/09/26 11:30:18;;;;;;;6.47;2.80;;;;;;;-142.57;100.00;68379.81;5047575;28;20079;-73
2022/09/26 11:32:47;;;;;;;6.70;2.90;;;;;;;-142.57;100.00;68379.81;5047460;28;20033;-74
2022/09/26 11:35:25;;;;;;;4.15;2.50;;;;;;;-142.57;100.00;68379.81;5043130;28;20056;-73
2022/09/26 11:38:27;;;;;;;9.07;2.28;;;;;;;-142.57;100.00;68379.81;5047086;28;20545;-73